Time;durP1;ratioP1;P1;durP2;ratioP2;P2;SDS_P1;SDS_P2;PMS_P1;PMS_P2;Temp;Humidity;BMP_temperature;BMP_pressure;BME280_temperature;BME280_humidity;BME280_pressure;Samples;Min_cycle;Max_cycle;Signal;HPM_P1;HPM_P2
2022/10/30 00:01:23;;;;;;;15.03;5.60;;;16.10;99.90;;;;;;5119935;28;20179;-60
2022/10/30 00:03:52;;;;;;;13.70;6.37;;;16.00;99.90;;;;;;5120006;28;20538;-59
2022/10/30 00:06:21;;;;;;;13.40;6.20;;;16.00;99.90;;;;;;5117987;28;20195;-60
2022/10/30 00:08:49;;;;;;;19.10;6.50;;;16.00;99.90;;;;;;5099236;28;20278;-60
2022/10/30 00:11:20;;;;;;;18.10;6.40;;;16.00;99.90;;;;;;5081468;28;20188;-60
2022/10/30 00:13:48;;;;;;;20.40;6.20;;;15.90;99.90;;;;;;5099541;28;20229;-60
2022/10/30 00:16:18;;;;;;;13.43;5.93;;;15.80;99.90;;;;;;5099548;28;20192;-60
2022/10/30 00:18:47;;;;;;;18.30;6.53;;;15.70;99.90;;;;;;5077894;28;20200;-59
2022/10/30 00:21:17;;;;;;;17.73;6.83;;;15.70;99.90;;;;;;5096843;28;20638;-59
2022/10/30 00:23:50;;;;;;;14.00;6.13;;;15.60;99.90;;;;;;5061478;28;20188;-59
2022/10/30 00:26:19;;;;;;;12.03;6.50;;;15.60;99.90;;;;;;5096229;28;20597;-60
2022/10/30 00:28:50;;;;;;;13.40;6.07;;;15.50;99.90;;;;;;5114165;28;20241;-60
2022/10/30 00:31:18;;;;;;;14.27;6.93;;;15.50;99.90;;;;;;5116431;28;20273;-60
2022/10/30 00:33:50;;;;;;;13.57;6.10;;;15.40;99.90;;;;;;5116393;28;20542;-59
2022/10/30 00:36:20;;;;;;;11.47;6.60;;;15.30;99.90;;;;;;5116600;28;20196;-60
2022/10/30 00:38:48;;;;;;;13.83;6.97;;;15.30;99.90;;;;;;5106745;28;20192;-59
2022/10/30 00:41:19;;;;;;;15.87;6.53;;;15.20;99.90;;;;;;5095812;28;20193;-60
2022/10/30 00:43:48;;;;;;;19.17;6.83;;;15.10;99.90;;;;;;5096539;28;20188;-59
2022/10/30 00:46:20;;;;;;;14.83;6.40;;;15.10;99.90;;;;;;5077806;28;20202;-59
2022/10/30 00:48:52;;;;;;;19.67;7.80;;;15.00;99.90;;;;;;5077825;28;20192;-60
2022/10/30 00:51:22;;;;;;;14.00;6.87;;;15.00;99.90;;;;;;5096133;28;20195;-60
2022/10/30 00:53:52;;;;;;;14.17;6.80;;;15.00;99.90;;;;;;5109731;28;20196;-59
2022/10/30 00:56:23;;;;;;;13.30;7.17;;;15.10;99.90;;;;;;5115936;28;20243;-60
2022/10/30 00:58:56;;;;;;;16.57;7.23;;;15.20;99.90;;;;;;5115763;28;20194;-60
2022/10/30 01:01:30;;;;;;;17.07;6.50;;;15.20;99.90;;;;;;5116060;28;20179;-60
2022/10/30 01:04:02;;;;;;;13.97;6.70;;;15.30;99.90;;;;;;5115949;28;20251;-60
2022/10/30 01:06:33;;;;;;;17.70;7.10;;;15.20;99.90;;;;;;5115636;28;20626;-59
2022/10/30 01:09:03;;;;;;;14.67;7.20;;;15.20;99.90;;;;;;5115749;28;20191;-59
2022/10/30 01:11:32;;;;;;;16.53;7.07;;;15.20;99.90;;;;;;5115363;28;20591;-59
2022/10/30 01:14:04;;;;;;;12.57;6.40;;;15.10;99.90;;;;;;5077090;28;20666;-59
2022/10/30 01:16:57;;;;;;;12.00;7.00;;;15.10;99.90;;;;;;5095330;28;20192;-59
2022/10/30 01:19:31;;;;;;;15.00;6.33;;;15.10;99.90;;;;;;5095127;28;20670;-59
2022/10/30 01:22:16;;;;;;;14.80;6.83;;;15.10;99.90;;;;;;5095067;28;20192;-59
2022/10/30 01:24:58;;;;;;;16.10;6.60;;;15.10;99.90;;;;;;5094796;28;20198;-60
2022/10/30 01:27:39;;;;;;;17.67;6.80;;;15.20;99.90;;;;;;5095800;28;20192;-60
2022/10/30 01:30:26;;;;;;;15.50;6.83;;;15.20;99.90;;;;;;5114980;28;20641;-59
2022/10/30 01:33:08;;;;;;;14.30;7.17;;;15.10;99.90;;;;;;5097417;28;20187;-59
2022/10/30 01:35:41;;;;;;;19.00;8.03;;;15.00;99.90;;;;;;5115359;28;20613;-60
2022/10/30 01:38:19;;;;;;;12.23;6.33;;;14.90;99.90;;;;;;5115326;28;20524;-59
2022/10/30 01:40:48;;;;;;;16.03;7.00;;;14.90;99.90;;;;;;5097361;28;20192;-60
2022/10/30 01:43:17;;;;;;;12.93;7.00;;;14.80;99.90;;;;;;5115354;28;20274;-60
2022/10/30 01:46:04;;;;;;;18.60;7.27;;;14.70;99.90;;;;;;5096980;28;20187;-59
2022/10/30 01:48:53;;;;;;;19.47;7.47;;;14.70;99.90;;;;;;5115211;28;20183;-60
2022/10/30 01:51:30;;;;;;;12.67;6.60;;;14.70;99.90;;;;;;5115175;28;20190;-60
2022/10/30 01:54:09;;;;;;;16.43;7.47;;;14.70;99.90;;;;;;5114789;28;20641;-60
2022/10/30 01:56:42;;;;;;;14.20;7.37;;;14.70;99.90;;;;;;5114869;28;20249;-60
2022/10/30 01:59:17;;;;;;;15.93;7.10;;;14.60;99.90;;;;;;5114895;28;20185;-59
2022/10/30 02:05:25;;;;;;;14.87;7.23;;;14.60;99.90;;;;;;5114634;28;20187;-60
2022/10/30 02:12:21;;;;;;;19.23;7.83;;;14.40;99.90;;;;;;5100308;28;20354;-59
2022/10/30 02:14:52;;;;;;;15.80;7.30;;;14.30;99.90;;;;;;5114403;28;20514;-59
2022/10/30 02:17:21;;;;;;;16.90;7.17;;;14.30;99.90;;;;;;5114656;28;20629;-59
2022/10/30 02:19:49;;;;;;;16.70;7.60;;;14.30;99.90;;;;;;5114097;28;20195;-59
2022/10/30 02:22:19;;;;;;;12.73;7.63;;;14.20;99.90;;;;;;5075914;28;20203;-60
2022/10/30 02:24:47;;;;;;;14.90;7.70;;;14.20;99.90;;;;;;5101599;28;20203;-59
2022/10/30 02:27:15;;;;;;;14.07;7.33;;;14.20;99.90;;;;;;5095622;28;20205;-60
2022/10/30 02:29:44;;;;;;;17.90;7.00;;;14.10;99.90;;;;;;5096184;28;20187;-59
2022/10/30 02:32:12;;;;;;;19.47;7.43;;;14.10;99.90;;;;;;5095866;28;20685;-59
2022/10/30 02:34:41;;;;;;;18.70;8.17;;;14.10;99.90;;;;;;5096069;28;20194;-59
2022/10/30 02:37:10;;;;;;;15.50;7.63;;;14.10;99.90;;;;;;5095977;28;20190;-59
2022/10/30 02:39:39;;;;;;;18.87;7.27;;;14.10;99.90;;;;;;5096025;28;20222;-59
2022/10/30 02:42:08;;;;;;;19.50;7.97;;;14.10;99.90;;;;;;5113616;28;20711;-59
2022/10/30 02:44:36;;;;;;;17.20;7.37;;;14.20;99.90;;;;;;5113944;28;20537;-59
2022/10/30 02:47:05;;;;;;;15.90;7.33;;;14.20;99.90;;;;;;5114010;28;20187;-59
2022/10/30 02:49:33;;;;;;;19.27;7.67;;;14.20;99.90;;;;;;5095608;28;20191;-59
2022/10/30 02:52:01;;;;;;;17.50;8.10;;;14.20;99.90;;;;;;5095515;28;20187;-59
2022/10/30 02:54:29;;;;;;;18.63;7.20;;;14.20;99.90;;;;;;5113874;28;20191;-59
2022/10/30 02:56:59;;;;;;;20.40;7.30;;;14.10;99.90;;;;;;5113589;28;20569;-60
2022/10/30 02:59:27;;;;;;;16.33;6.93;;;14.10;99.90;;;;;;5113807;28;20187;-60
2022/10/30 03:01:55;;;;;;;19.20;7.90;;;14.00;99.90;;;;;;5113763;28;20205;-59
2022/10/30 03:04:24;;;;;;;14.23;7.27;;;13.90;99.90;;;;;;5095626;28;20191;-59
2022/10/30 03:06:52;;;;;;;17.70;8.20;;;13.90;99.90;;;;;;5113598;28;20190;-60
2022/10/30 03:09:20;;;;;;;17.63;7.93;;;13.90;99.90;;;;;;5113783;28;20190;-59
2022/10/30 03:11:49;;;;;;;16.03;7.40;;;14.00;99.90;;;;;;5113248;28;20223;-59
2022/10/30 03:14:18;;;;;;;19.47;7.57;;;14.10;99.90;;;;;;5113297;28;20188;-59
2022/10/30 03:16:46;;;;;;;18.23;7.30;;;14.20;99.90;;;;;;5113231;28;20207;-60
2022/10/30 03:19:15;;;;;;;17.53;7.27;;;14.20;99.90;;;;;;5093349;28;20188;-60
2022/10/30 03:21:43;;;;;;;16.63;7.17;;;14.10;99.90;;;;;;5093305;28;20282;-59
2022/10/30 03:24:12;;;;;;;16.60;7.23;;;14.10;99.90;;;;;;5093409;28;20658;-59
2022/10/30 03:26:40;;;;;;;18.37;7.77;;;14.00;99.90;;;;;;5109960;28;20258;-59
2022/10/30 03:29:08;;;;;;;16.87;7.50;;;13.90;99.90;;;;;;5113891;28;20190;-59
2022/10/30 03:31:38;;;;;;;14.63;7.43;;;13.80;99.90;;;;;;5113486;28;20191;-59
2022/10/30 03:34:06;;;;;;;12.37;7.40;;;13.70;99.90;;;;;;5113422;28;20554;-59
2022/10/30 03:36:35;;;;;;;17.57;7.73;;;13.70;99.90;;;;;;5095344;28;20697;-60
2022/10/30 03:39:03;;;;;;;14.07;7.50;;;13.60;99.90;;;;;;5113477;28;20191;-60
2022/10/30 03:41:31;;;;;;;24.10;9.17;;;13.60;99.90;;;;;;5113080;28;20673;-59
2022/10/30 03:44:00;;;;;;;14.27;8.73;;;13.50;99.90;;;;;;5113730;28;20668;-59
2022/10/30 03:46:30;;;;;;;21.97;7.67;;;13.50;99.90;;;;;;5113806;28;20244;-59
2022/10/30 03:49:00;;;;;;;11.30;7.73;;;13.40;99.90;;;;;;5113344;28;20367;-59
2022/10/30 03:51:28;;;;;;;18.80;9.43;;;13.40;99.90;;;;;;5094872;28;20201;-59
2022/10/30 03:53:56;;;;;;;20.20;9.30;;;13.40;99.90;;;;;;5115248;28;20190;-60
2022/10/30 03:56:25;;;;;;;20.20;8.13;;;13.30;99.90;;;;;;5109590;28;20218;-60
2022/10/30 03:58:53;;;;;;;17.10;8.47;;;13.30;99.90;;;;;;5079529;28;20191;-60
2022/10/30 04:01:21;;;;;;;17.33;9.07;;;13.20;99.90;;;;;;5117111;28;20191;-60
2022/10/30 04:03:50;;;;;;;17.23;8.17;;;13.20;99.90;;;;;;5117249;28;20191;-59
2022/10/30 04:06:19;;;;;;;26.17;8.90;;;13.20;99.90;;;;;;5098914;28;20190;-59
2022/10/30 04:08:48;;;;;;;16.87;8.10;;;13.10;99.90;;;;;;5116960;28;20653;-60
2022/10/30 04:11:16;;;;;;;14.10;8.30;;;13.10;99.90;;;;;;5116615;28;20240;-59
2022/10/30 04:13:45;;;;;;;19.47;9.20;;;13.00;99.90;;;;;;5098712;28;20692;-60
2022/10/30 04:16:14;;;;;;;18.27;8.43;;;13.00;99.90;;;;;;5098935;28;20234;-59
2022/10/30 04:18:42;;;;;;;14.97;8.10;;;13.00;99.90;;;;;;5081694;28;20191;-59
2022/10/30 04:21:10;;;;;;;16.57;8.40;;;13.00;99.90;;;;;;5116957;28;20645;-60
2022/10/30 04:23:40;;;;;;;23.43;9.07;;;13.00;99.90;;;;;;5116635;28;20193;-61
2022/10/30 04:26:08;;;;;;;18.07;8.93;;;12.90;99.90;;;;;;5098275;28;20191;-59
2022/10/30 04:28:38;;;;;;;22.17;9.30;;;12.90;99.90;;;;;;5116664;28;20208;-59
2022/10/30 04:31:06;;;;;;;23.67;8.93;;;12.90;99.90;;;;;;5116661;28;20191;-59
2022/10/30 04:33:35;;;;;;;16.83;8.90;;;12.80;99.90;;;;;;5116296;28;20537;-59
2022/10/30 04:36:03;;;;;;;20.83;9.37;;;12.80;99.90;;;;;;5116192;28;20187;-59
2022/10/30 04:38:32;;;;;;;17.00;9.13;;;12.80;99.90;;;;;;5097956;28;20536;-59
2022/10/30 04:41:01;;;;;;;16.97;9.37;;;12.80;99.90;;;;;;5116484;28;20198;-60
2022/10/30 04:43:29;;;;;;;20.03;9.53;;;12.80;99.90;;;;;;5116165;28;20217;-60
2022/10/30 04:45:57;;;;;;;19.10;9.63;;;12.80;99.90;;;;;;5116109;28;20549;-59
2022/10/30 04:48:26;;;;;;;15.73;8.77;;;12.80;99.90;;;;;;5116195;28;20197;-60
2022/10/30 04:50:54;;;;;;;20.00;8.87;;;12.80;99.90;;;;;;5116030;28;20215;-59
2022/10/30 04:53:23;;;;;;;17.50;8.93;;;12.70;99.90;;;;;;5116127;28;20202;-60
2022/10/30 04:55:54;;;;;;;18.73;8.63;;;12.60;99.90;;;;;;5116352;28;20619;-59
2022/10/30 04:58:24;;;;;;;25.03;8.90;;;12.60;99.90;;;;;;5115519;28;20229;-59
2022/10/30 05:00:52;;;;;;;19.73;9.67;;;12.60;99.90;;;;;;5115836;28;20190;-59
2022/10/30 05:07:53;;;;;;;18.77;8.53;;;12.50;99.90;;;;;;5097641;28;20624;-59
2022/10/30 05:10:21;;;;;;;15.97;9.87;;;12.50;99.90;;;;;;5097104;28;20225;-59
2022/10/30 05:12:52;;;;;;;19.37;9.97;;;12.50;99.90;;;;;;5115373;28;20242;-59
2022/10/30 05:15:23;;;;;;;21.40;10.77;;;12.60;99.90;;;;;;5111738;28;20244;-60
2022/10/30 05:17:52;;;;;;;28.57;11.13;;;12.80;99.90;;;;;;5115669;28;20203;-60
2022/10/30 05:20:21;;;;;;;23.00;11.00;;;12.80;99.90;;;;;;5115402;28;20648;-60
2022/10/30 05:22:54;;;;;;;24.67;10.83;;;12.90;99.90;;;;;;5115451;28;20201;-60
2022/10/30 05:25:23;;;;;;;20.73;9.90;;;12.90;99.90;;;;;;5115292;28;20203;-60
2022/10/30 05:27:57;;;;;;;17.23;9.53;;;12.80;99.90;;;;;;5097388;28;20187;-60
2022/10/30 05:30:27;;;;;;;26.30;10.00;;;12.80;99.90;;;;;;5115297;28;20186;-60
2022/10/30 05:32:59;;;;;;;19.30;10.27;;;12.70;99.90;;;;;;5115636;28;20569;-60
2022/10/30 05:35:28;;;;;;;15.60;9.47;;;12.60;99.90;;;;;;5115173;28;20191;-60
2022/10/30 05:37:56;;;;;;;22.07;10.20;;;12.60;99.90;;;;;;5115347;28;20271;-60
2022/10/30 05:40:25;;;;;;;14.50;9.50;;;12.60;99.90;;;;;;5115208;28;20187;-60
2022/10/30 05:42:53;;;;;;;15.60;9.63;;;12.60;99.90;;;;;;5115463;28;20217;-60
2022/10/30 05:45:22;;;;;;;22.07;10.27;;;12.50;99.90;;;;;;5114901;28;20649;-60
2022/10/30 05:47:56;;;;;;;21.80;10.30;;;12.50;99.90;;;;;;5096852;28;20183;-60
2022/10/30 05:50:25;;;;;;;30.70;10.60;;;12.50;99.90;;;;;;5096889;28;20186;-60
2022/10/30 05:52:56;;;;;;;24.27;10.17;;;12.50;99.90;;;;;;5096604;28;20576;-60
2022/10/30 05:55:24;;;;;;;25.43;10.73;;;12.60;99.90;;;;;;5115250;28;20195;-60
2022/10/30 05:57:56;;;;;;;23.07;10.23;;;12.60;99.90;;;;;;5114527;28;20226;-60
2022/10/30 06:00:25;;;;;;;19.77;10.10;;;12.70;99.90;;;;;;5096511;28;20649;-60
2022/10/30 06:03:01;;;;;;;21.27;9.60;;;12.70;99.90;;;;;;5096386;28;20195;-60
2022/10/30 06:05:31;;;;;;;17.27;9.33;;;12.60;99.90;;;;;;5114661;28;20202;-60
2022/10/30 06:08:00;;;;;;;25.30;10.10;;;12.60;99.90;;;;;;5114827;28;20611;-60
2022/10/30 06:10:29;;;;;;;24.03;10.30;;;12.60;99.90;;;;;;5114932;28;20702;-61
2022/10/30 06:12:59;;;;;;;18.57;10.07;;;12.70;99.90;;;;;;5096126;28;20243;-60
2022/10/30 06:15:29;;;;;;;21.23;9.63;;;12.70;99.90;;;;;;5113656;28;20201;-60
2022/10/30 06:17:58;;;;;;;20.50;10.40;;;12.60;99.90;;;;;;5114082;28;20221;-59
2022/10/30 06:20:30;;;;;;;14.73;10.23;;;12.60;99.90;;;;;;5096565;28;20198;-60
2022/10/30 06:23:00;;;;;;;25.97;10.27;;;12.60;99.90;;;;;;5114422;28;20191;-61
2022/10/30 06:25:30;;;;;;;24.33;10.20;;;12.60;99.90;;;;;;5114551;28;20280;-60
2022/10/30 06:28:01;;;;;;;22.77;10.70;;;12.60;99.90;;;;;;5114246;28;20664;-61
2022/10/30 06:30:30;;;;;;;22.27;10.63;;;12.50;99.90;;;;;;5114166;28;20583;-60
2022/10/30 06:32:58;;;;;;;22.47;10.70;;;12.50;99.90;;;;;;5091038;28;20210;-60
2022/10/30 06:35:29;;;;;;;19.17;9.70;;;12.60;99.90;;;;;;5096880;28;20282;-60
2022/10/30 06:37:59;;;;;;;22.00;10.67;;;12.60;99.90;;;;;;5098472;28;20206;-60
2022/10/30 06:40:28;;;;;;;18.97;10.20;;;12.60;99.90;;;;;;5114293;28;20537;-60
2022/10/30 06:42:57;;;;;;;20.20;10.53;;;12.70;99.90;;;;;;5113857;28;20222;-60
2022/10/30 06:45:26;;;;;;;21.70;10.17;;;12.70;99.90;;;;;;5114313;28;20247;-61
2022/10/30 06:47:54;;;;;;;20.23;10.20;;;12.70;99.90;;;;;;5110493;28;20663;-61
2022/10/30 06:50:24;;;;;;;21.37;10.20;;;12.60;99.90;;;;;;5095175;28;20186;-59
2022/10/30 06:52:54;;;;;;;23.53;10.20;;;12.70;99.90;;;;;;5114300;28;20186;-61
2022/10/30 06:55:22;;;;;;;20.60;10.03;;;12.80;99.90;;;;;;5095771;28;20202;-59
2022/10/30 06:57:54;;;;;;;24.20;10.20;;;12.80;99.90;;;;;;5104524;28;20215;-60
2022/10/30 07:00:23;;;;;;;25.97;9.70;;;12.90;99.90;;;;;;5095022;28;20719;-60
2022/10/30 07:02:59;;;;;;;20.47;9.87;;;12.90;99.90;;;;;;5114105;28;20202;-60
2022/10/30 07:05:28;;;;;;;20.60;10.17;;;13.00;99.90;;;;;;5113906;28;20174;-60
2022/10/30 07:07:58;;;;;;;22.40;9.83;;;13.00;99.90;;;;;;5109626;28;20191;-60
2022/10/30 07:10:26;;;;;;;19.40;9.43;;;13.10;99.90;;;;;;5112548;28;20198;-60
2022/10/30 07:12:57;;;;;;;20.73;10.20;;;13.10;99.90;;;;;;5109839;28;20230;-60
2022/10/30 07:15:26;;;;;;;14.23;9.50;;;13.20;99.90;;;;;;5113452;28;20278;-60
2022/10/30 07:17:59;;;;;;;22.43;9.80;;;13.20;99.90;;;;;;5113507;28;20207;-60
2022/10/30 07:20:29;;;;;;;19.90;9.47;;;13.30;99.90;;;;;;5087048;28;20194;-60
2022/10/30 07:22:59;;;;;;;21.17;9.27;;;13.30;99.90;;;;;;5107209;28;20537;-60
2022/10/30 07:25:28;;;;;;;22.97;10.13;;;13.30;99.90;;;;;;5113681;28;20190;-61
2022/10/30 07:27:57;;;;;;;17.13;9.07;;;13.40;99.90;;;;;;5115634;28;20190;-60
2022/10/30 07:30:27;;;;;;;20.07;9.13;;;13.40;99.90;;;;;;5117900;28;20222;-60
2022/10/30 07:33:00;;;;;;;18.17;9.23;;;13.50;99.90;;;;;;5117524;28;20291;-60
2022/10/30 07:35:31;;;;;;;20.80;8.80;;;13.60;99.90;;;;;;5082130;28;20190;-60
2022/10/30 07:38:04;;;;;;;14.60;8.50;;;13.70;99.90;;;;;;5104695;28;20670;-60
2022/10/30 07:40:33;;;;;;;23.50;9.17;;;13.70;99.90;;;;;;5112656;28;20194;-61
2022/10/30 07:43:03;;;;;;;20.83;8.77;;;13.80;99.90;;;;;;5117220;28;20705;-60
2022/10/30 07:45:32;;;;;;;19.97;8.30;;;13.90;99.90;;;;;;5117253;28;20190;-60
2022/10/30 07:48:00;;;;;;;16.23;8.70;;;14.10;99.90;;;;;;5098828;28;20186;-60
2022/10/30 07:50:29;;;;;;;15.00;7.57;;;14.20;99.90;;;;;;5117016;28;20244;-60
2022/10/30 07:52:58;;;;;;;22.17;8.80;;;14.30;99.90;;;;;;5112493;28;20187;-61
2022/10/30 07:55:28;;;;;;;15.50;7.97;;;14.40;99.90;;;;;;5096761;28;20184;-60
2022/10/30 07:57:56;;;;;;;18.57;8.10;;;14.40;99.90;;;;;;5115924;28;20214;-60
2022/10/30 08:00:25;;;;;;;14.80;7.93;;;14.50;99.90;;;;;;5097099;28;20186;-60
2022/10/30 08:02:56;;;;;;;19.60;8.80;;;14.50;99.90;;;;;;5097209;28;20664;-60
2022/10/30 08:05:25;;;;;;;17.60;7.67;;;14.60;99.90;;;;;;5098707;28;20202;-60
2022/10/30 08:07:57;;;;;;;19.77;8.20;;;14.70;99.90;;;;;;5116829;28;20197;-60
2022/10/30 08:10:27;;;;;;;11.60;7.80;;;14.70;99.90;;;;;;5098366;28;20199;-60
2022/10/30 08:12:56;;;;;;;14.20;8.47;;;14.80;99.90;;;;;;5116232;28;20280;-60
2022/10/30 08:15:24;;;;;;;14.97;7.90;;;14.80;99.90;;;;;;5116886;28;20534;-60
2022/10/30 08:17:53;;;;;;;15.93;8.43;;;14.80;99.90;;;;;;5104461;28;20206;-60
2022/10/30 08:20:23;;;;;;;19.03;8.17;;;14.90;99.90;;;;;;5098400;28;20222;-60
2022/10/30 08:22:52;;;;;;;19.17;8.70;;;15.00;99.90;;;;;;5111835;28;20196;-60
2022/10/30 08:25:23;;;;;;;17.67;7.23;;;15.00;99.90;;;;;;5105309;28;20574;-60
2022/10/30 08:27:56;;;;;;;15.87;7.97;;;15.10;99.90;;;;;;5101928;28;20187;-60
2022/10/30 08:30:26;;;;;;;14.00;8.10;;;15.10;99.90;;;;;;5096254;28;20643;-60
2022/10/30 08:32:58;;;;;;;15.07;7.47;;;15.20;99.90;;;;;;5110892;28;20227;-60
2022/10/30 08:35:27;;;;;;;15.30;7.57;;;15.20;99.90;;;;;;5116525;28;20235;-60
2022/10/30 08:37:55;;;;;;;15.80;7.73;;;15.30;99.90;;;;;;5116394;28;20183;-60
2022/10/30 08:40:26;;;;;;;22.27;7.60;;;15.40;99.90;;;;;;5115342;28;20198;-59
2022/10/30 08:42:57;;;;;;;12.50;7.23;;;15.60;99.90;;;;;;5116570;28;20212;-60
2022/10/30 08:45:26;;;;;;;17.07;7.43;;;15.70;99.90;;;;;;5108940;28;20638;-60
2022/10/30 08:47:59;;;;;;;18.53;7.30;;;15.80;99.90;;;;;;5107236;28;20234;-59
2022/10/30 08:50:28;;;;;;;21.57;8.40;;;16.00;99.90;;;;;;5115848;28;20549;-60
2022/10/30 08:52:59;;;;;;;17.73;7.37;;;16.10;99.90;;;;;;5115748;28;20199;-60
2022/10/30 08:55:29;;;;;;;18.23;7.23;;;16.20;99.90;;;;;;5116238;28;20564;-60
2022/10/30 08:57:59;;;;;;;15.60;6.50;;;16.50;99.90;;;;;;5116045;28;20189;-59
2022/10/30 09:00:28;;;;;;;20.47;7.17;;;16.70;99.90;;;;;;5115804;28;20226;-60
2022/10/30 09:02:56;;;;;;;14.43;6.87;;;16.80;99.90;;;;;;5080995;28;20201;-60
2022/10/30 09:05:25;;;;;;;13.20;6.40;;;17.00;99.90;;;;;;5095782;28;20194;-60
2022/10/30 09:07:57;;;;;;;17.70;6.03;;;17.00;99.90;;;;;;5100824;28;20194;-61
2022/10/30 09:10:26;;;;;;;17.50;6.67;;;17.10;99.90;;;;;;5092186;28;20655;-60
2022/10/30 09:12:55;;;;;;;16.90;6.40;;;17.10;99.90;;;;;;5097472;28;20229;-61
2022/10/30 09:15:26;;;;;;;12.37;6.20;;;17.10;99.90;;;;;;5115690;28;20649;-60
2022/10/30 09:17:59;;;;;;;15.67;6.17;;;17.20;99.90;;;;;;5115841;28;20200;-61
2022/10/30 09:20:29;;;;;;;12.97;6.57;;;17.30;99.90;;;;;;5115585;28;20216;-60
2022/10/30 09:22:57;;;;;;;15.27;6.00;;;17.30;99.90;;;;;;5115483;28;20186;-61
2022/10/30 09:25:26;;;;;;;14.40;5.87;;;17.30;99.90;;;;;;5115373;28;20201;-60
2022/10/30 09:27:54;;;;;;;17.70;6.93;;;17.40;99.90;;;;;;5116039;28;20193;-60
2022/10/30 09:30:23;;;;;;;15.57;6.80;;;17.60;99.90;;;;;;5093535;28;20199;-61
2022/10/30 09:32:56;;;;;;;21.97;7.20;;;17.60;99.90;;;;;;5112736;28;20541;-60
2022/10/30 09:35:26;;;;;;;12.10;6.67;;;17.70;99.90;;;;;;5114283;28;20197;-61
2022/10/30 09:37:54;;;;;;;17.10;6.70;;;17.70;99.90;;;;;;5091268;28;20548;-61
2022/10/30 09:40:29;;;;;;;15.27;6.57;;;17.80;99.90;;;;;;5114930;28;20699;-60
2022/10/30 09:43:05;;;;;;;21.33;6.53;;;17.90;99.90;;;;;;5114996;28;20684;-61
2022/10/30 09:46:11;;;;;;;22.27;6.87;;;18.00;99.90;;;;;;5115295;28;20178;-60
2022/10/30 09:48:59;;;;;;;14.00;5.90;;;18.10;99.90;;;;;;5097996;28;20195;-61
2022/10/30 09:51:42;;;;;;;14.27;5.90;;;18.20;99.90;;;;;;5094646;28;20184;-61
2022/10/30 09:54:21;;;;;;;17.40;5.83;;;18.40;99.90;;;;;;5094509;28;20233;-61
2022/10/30 09:56:55;;;;;;;20.67;6.70;;;18.60;99.90;;;;;;5108965;28;20201;-60
2022/10/30 09:59:40;;;;;;;12.53;6.07;;;18.80;99.90;;;;;;5114927;28;20210;-60
2022/10/30 10:02:21;;;;;;;17.87;6.23;;;18.90;99.90;;;;;;5114646;28;20182;-60
2022/10/30 10:04:56;;;;;;;13.70;6.20;;;18.80;99.90;;;;;;5096842;28;20597;-61
2022/10/30 10:07:29;;;;;;;18.87;6.80;;;18.70;99.90;;;;;;5114598;28;20186;-61
2022/10/30 10:10:03;;;;;;;15.77;6.40;;;18.70;99.90;;;;;;5100114;27;20201;-60
2022/10/30 10:12:38;;;;;;;10.07;5.73;;;18.70;99.90;;;;;;5114140;28;20705;-61
2022/10/30 10:15:14;;;;;;;19.17;6.37;;;18.70;99.90;;;;;;5111733;28;20544;-60
2022/10/30 10:17:45;;;;;;;13.43;6.10;;;18.80;99.90;;;;;;5084319;28;20221;-60
2022/10/30 10:20:23;;;;;;;14.73;6.23;;;18.90;99.90;;;;;;5114240;28;20213;-60
2022/10/30 10:22:52;;;;;;;15.67;5.77;;;19.10;99.90;;;;;;5114065;28;20217;-61
2022/10/30 10:25:21;;;;;;;10.27;5.73;;;19.10;99.90;;;;;;5096157;28;20191;-60
2022/10/30 10:28:02;;;;;;;16.77;6.67;;;19.10;99.90;;;;;;5096197;28;20198;-61
2022/10/30 10:30:42;;;;;;;12.50;5.90;;;19.20;99.90;;;;;;5111054;28;20545;-60
2022/10/30 10:33:37;;;;;;;11.30;5.97;;;19.20;99.90;;;;;;5108657;27;20194;-61
2022/10/30 10:36:20;;;;;;;16.17;6.33;;;19.20;99.90;;;;;;5096517;28;20202;-60
2022/10/30 10:39:02;;;;;;;13.20;6.20;;;19.30;99.90;;;;;;5078979;28;20198;-60
2022/10/30 10:41:44;;;;;;;13.50;6.37;;;19.40;99.90;;;;;;5110178;28;20230;-60
2022/10/30 10:44:32;;;;;;;21.60;7.00;;;19.40;99.90;;;;;;5107284;28;20229;-60
2022/10/30 10:47:15;;;;;;;14.07;6.63;;;19.40;99.90;;;;;;5114204;28;20221;-60
2022/10/30 10:49:56;;;;;;;22.63;6.37;;;19.40;99.90;;;;;;5113821;28;20190;-60
2022/10/30 10:52:36;;;;;;;14.83;5.83;;;19.40;99.90;;;;;;5113977;28;20191;-61
2022/10/30 10:55:07;;;;;;;17.50;6.47;;;19.40;99.90;;;;;;5113135;28;20645;-61
2022/10/30 10:57:38;;;;;;;15.57;6.53;;;19.50;99.90;;;;;;5077011;28;20195;-61
2022/10/30 11:00:08;;;;;;;12.97;5.93;;;19.60;99.90;;;;;;5093239;28;20238;-60
2022/10/30 11:02:41;;;;;;;14.40;6.17;;;19.60;99.90;;;;;;5113314;28;20238;-60
2022/10/30 11:05:27;;;;;;;20.17;6.60;;;19.70;99.90;;;;;;5088294;28;20277;-60
2022/10/30 11:08:02;;;;;;;16.70;6.33;;;19.80;99.90;;;;;;5103048;28;20656;-60
2022/10/30 11:10:30;;;;;;;13.67;5.93;;;19.90;99.90;;;;;;5116821;28;20175;-60
2022/10/30 11:13:00;;;;;;;15.70;6.97;;;19.80;99.90;;;;;;5094947;28;20230;-60
2022/10/30 11:15:39;;;;;;;12.33;6.60;;;19.80;99.90;;;;;;5113598;28;20198;-61
2022/10/30 11:18:09;;;;;;;14.87;6.67;;;19.80;99.90;;;;;;5113402;28;20187;-61
2022/10/30 11:20:42;;;;;;;15.80;6.43;;;19.80;99.90;;;;;;5096947;28;20210;-60
2022/10/30 11:23:37;;;;;;;13.90;5.77;;;19.80;99.90;;;;;;5113451;28;20220;-61
2022/10/30 11:26:28;;;;;;;12.23;6.50;;;19.80;99.90;;;;;;5113321;28;20668;-60
2022/10/30 11:29:01;;;;;;;15.00;6.67;;;19.80;99.90;;;;;;5113362;28;20210;-61
2022/10/30 11:31:34;;;;;;;12.90;6.57;;;19.80;99.90;;;;;;5113438;28;20545;-60
2022/10/30 11:34:14;;;;;;;17.93;6.90;;;19.80;99.90;;;;;;5087201;28;20626;-60
2022/10/30 11:36:43;;;;;;;15.13;6.33;;;19.70;99.90;;;;;;5113484;28;20190;-61
2022/10/30 11:39:18;;;;;;;12.57;6.50;;;19.60;99.90;;;;;;5095076;28;20198;-60
2022/10/30 11:41:54;;;;;;;11.80;5.93;;;19.70;99.90;;;;;;5113293;28;20221;-61
2022/10/30 11:44:23;;;;;;;10.97;6.77;;;19.60;99.90;;;;;;5113640;28;20579;-61
2022/10/30 11:46:52;;;;;;;15.87;6.73;;;19.60;99.90;;;;;;5113463;28;20191;-61
2022/10/30 11:49:33;;;;;;;11.13;6.20;;;19.70;99.90;;;;;;5113512;28;20187;-61
2022/10/30 11:52:02;;;;;;;20.13;6.73;;;19.70;99.90;;;;;;5113303;28;20195;-61
2022/10/30 11:54:36;;;;;;;13.43;7.00;;;19.80;99.90;;;;;;5113421;28;20193;-61
2022/10/30 11:57:11;;;;;;;14.33;6.83;;;19.80;99.90;;;;;;5097556;28;20189;-60
2022/10/30 11:59:45;;;;;;;18.43;7.43;;;19.80;99.90;;;;;;5093438;28;20269;-61
2022/10/30 12:02:25;;;;;;;14.73;6.43;;;19.80;99.90;;;;;;5085715;28;20185;-61
2022/10/30 12:04:54;;;;;;;10.90;6.43;;;19.80;99.90;;;;;;5113102;28;20236;-61
2022/10/30 12:07:29;;;;;;;14.03;6.53;;;19.90;99.90;;;;;;5094784;28;20183;-61
2022/10/30 12:10:01;;;;;;;17.30;7.43;;;19.90;99.90;;;;;;5115991;28;20196;-61
2022/10/30 12:12:33;;;;;;;15.47;6.80;;;20.00;99.90;;;;;;5091252;28;20222;-60
2022/10/30 12:15:11;;;;;;;11.17;6.20;;;20.00;99.90;;;;;;5114815;28;20187;-61
2022/10/30 12:17:40;;;;;;;15.40;7.07;;;20.00;99.90;;;;;;5096475;28;20640;-61
2022/10/30 12:20:14;;;;;;;19.83;7.37;;;20.00;99.90;;;;;;5116192;28;20549;-61
2022/10/30 12:22:43;;;;;;;16.07;7.07;;;20.10;99.90;;;;;;5116714;28;20197;-61
2022/10/30 12:25:23;;;;;;;15.03;7.13;;;20.10;99.90;;;;;;5116710;28;20716;-61
2022/10/30 12:27:59;;;;;;;15.27;6.40;;;20.10;99.90;;;;;;5116754;28;20252;-61
2022/10/30 12:30:30;;;;;;;12.97;6.80;;;20.20;99.90;;;;;;5116572;28;20201;-61
2022/10/30 12:33:04;;;;;;;18.83;6.83;;;20.30;99.90;;;;;;5116645;28;20198;-61
2022/10/30 12:35:40;;;;;;;20.63;6.97;;;20.40;99.90;;;;;;5103557;28;20644;-61
2022/10/30 12:38:17;;;;;;;14.03;7.10;;;20.60;99.90;;;;;;5098197;28;20197;-61
2022/10/30 12:40:58;;;;;;;15.03;7.30;;;20.60;99.90;;;;;;5077750;28;20211;-62
2022/10/30 12:43:27;;;;;;;18.37;7.03;;;20.40;99.90;;;;;;5109471;28;20221;-61
2022/10/30 12:46:04;;;;;;;23.70;7.33;;;20.50;99.90;;;;;;5098364;28;20202;-61
2022/10/30 12:48:37;;;;;;;20.23;7.13;;;20.60;99.90;;;;;;5098890;28;20206;-61
2022/10/30 12:51:15;;;;;;;14.37;6.97;;;20.70;99.90;;;;;;5096129;28;20195;-61
2022/10/30 12:53:57;;;;;;;15.73;7.10;;;20.80;99.90;;;;;;5107655;28;20247;-61
2022/10/30 12:56:32;;;;;;;15.67;7.07;;;20.70;99.90;;;;;;5105493;28;20830;-61
2022/10/30 12:59:24;;;;;;;17.10;6.77;;;20.80;99.90;;;;;;5096562;28;20246;-61
2022/10/30 13:01:59;;;;;;;16.67;7.30;;;21.00;99.90;;;;;;5097899;28;20704;-61
2022/10/30 13:04:33;;;;;;;21.13;7.63;;;21.00;99.90;;;;;;5115553;28;20194;-62
2022/10/30 13:07:13;;;;;;;15.83;6.87;;;21.00;99.90;;;;;;5115728;28;20187;-61
2022/10/30 13:09:49;;;;;;;13.80;7.67;;;21.10;99.90;;;;;;5097433;28;20190;-61
2022/10/30 13:12:23;;;;;;;16.07;7.43;;;21.10;99.90;;;;;;5115350;28;20271;-60